sensor_id;sensor_type;location;lat;lon;timestamp;temperature;humidity
15343;DHT22;7771;48.478;8.936;2024-03-25T00:01:31;6.10;99.90
15343;DHT22;7771;48.478;8.936;2024-03-25T00:03:59;6.10;99.90
15343;DHT22;7771;48.478;8.936;2024-03-25T00:06:25;6.10;99.90
15343;DHT22;7771;48.478;8.936;2024-03-25T00:08:53;6.10;99.90
15343;DHT22;7771;48.478;8.936;2024-03-25T00:11:20;6.10;99.90
15343;DHT22;7771;48.478;8.936;2024-03-25T00:13:48;6.10;99.90
15343;DHT22;7771;48.478;8.936;2024-03-25T00:16:15;6.00;99.90
15343;DHT22;7771;48.478;8.936;2024-03-25T00:18:43;6.00;99.90
15343;DHT22;7771;48.478;8.936;2024-03-25T00:21:10;6.10;99.90
15343;DHT22;7771;48.478;8.936;2024-03-25T00:23:38;6.10;99.90
15343;DHT22;7771;48.478;8.936;2024-03-25T00:26:05;6.10;99.90
15343;DHT22;7771;48.478;8.936;2024-03-25T00:28:32;6.10;99.90
15343;DHT22;7771;48.478;8.936;2024-03-25T00:30:59;6.10;99.90
15343;DHT22;7771;48.478;8.936;2024-03-25T00:33:26;6.20;99.90
15343;DHT22;7771;48.478;8.936;2024-03-25T00:38:22;6.20;99.90
15343;DHT22;7771;48.478;8.936;2024-03-25T00:40:48;6.20;99.90
15343;DHT22;7771;48.478;8.936;2024-03-25T00:43:15;6.30;99.90
15343;DHT22;7771;48.478;8.936;2024-03-25T00:45:42;6.20;99.90
15343;DHT22;7771;48.478;8.936;2024-03-25T00:48:09;6.30;99.90
15343;DHT22;7771;48.478;8.936;2024-03-25T00:50:36;6.20;99.90
15343;DHT22;7771;48.478;8.936;2024-03-25T00:53:03;6.30;99.90
15343;DHT22;7771;48.478;8.936;2024-03-25T00:55:30;6.20;99.90
15343;DHT22;7771;48.478;8.936;2024-03-25T00:57:57;6.20;99.90
15343;DHT22;7771;48.478;8.936;2024-03-25T01:00:24;6.20;99.90
15343;DHT22;7771;48.478;8.936;2024-03-25T01:02:51;6.20;99.90
15343;DHT22;7771;48.478;8.936;2024-03-25T01:05:19;6.20;99.90
15343;DHT22;7771;48.478;8.936;2024-03-25T01:07:46;6.20;99.90
15343;DHT22;7771;48.478;8.936;2024-03-25T01:10:15;6.20;99.90
15343;DHT22;7771;48.478;8.936;2024-03-25T01:12:41;6.20;99.90
15343;DHT22;7771;48.478;8.936;2024-03-25T01:15:08;6.20;99.90
15343;DHT22;7771;48.478;8.936;2024-03-25T01:17:36;6.20;99.90
15343;DHT22;7771;48.478;8.936;2024-03-25T01:20:03;6.20;99.90
15343;DHT22;7771;48.478;8.936;2024-03-25T01:22:31;6.20;99.90
15343;DHT22;7771;48.478;8.936;2024-03-25T01:24:58;6.20;99.90
15343;DHT22;7771;48.478;8.936;2024-03-25T01:27:24;6.20;99.90
15343;DHT22;7771;48.478;8.936;2024-03-25T01:29:52;6.20;99.90
15343;DHT22;7771;48.478;8.936;2024-03-25T01:32:19;6.20;99.90
15343;DHT22;7771;48.478;8.936;2024-03-25T01:34:47;6.20;99.90
15343;DHT22;7771;48.478;8.936;2024-03-25T01:37:15;6.20;99.90
15343;DHT22;7771;48.478;8.936;2024-03-25T01:39:43;6.20;99.90
15343;DHT22;7771;48.478;8.936;2024-03-25T01:42:10;6.20;99.90
15343;DHT22;7771;48.478;8.936;2024-03-25T01:47:05;6.20;99.90
15343;DHT22;7771;48.478;8.936;2024-03-25T01:49:32;6.20;99.90
15343;DHT22;7771;48.478;8.936;2024-03-25T01:51:59;6.10;99.90
15343;DHT22;7771;48.478;8.936;2024-03-25T01:54:26;6.10;99.90
15343;DHT22;7771;48.478;8.936;2024-03-25T01:56:53;6.10;99.90
15343;DHT22;7771;48.478;8.936;2024-03-25T01:59:20;6.10;99.90
15343;DHT22;7771;48.478;8.936;2024-03-25T02:01:47;6.10;99.90
15343;DHT22;7771;48.478;8.936;2024-03-25T02:04:14;6.10;99.90
15343;DHT22;7771;48.478;8.936;2024-03-25T02:06:41;6.10;99.90
15343;DHT22;7771;48.478;8.936;2024-03-25T02:09:09;6.10;99.90
15343;DHT22;7771;48.478;8.936;2024-03-25T02:11:36;6.10;99.90
15343;DHT22;7771;48.478;8.936;2024-03-25T02:14:04;6.00;99.90
15343;DHT22;7771;48.478;8.936;2024-03-25T02:16:31;6.00;99.90
15343;DHT22;7771;48.478;8.936;2024-03-25T02:21:26;6.00;99.90
15343;DHT22;7771;48.478;8.936;2024-03-25T02:23:53;5.90;99.90
15343;DHT22;7771;48.478;8.936;2024-03-25T02:26:20;5.90;99.90
15343;DHT22;7771;48.478;8.936;2024-03-25T02:28:46;5.80;99.90
15343;DHT22;7771;48.478;8.936;2024-03-25T02:31:14;5.80;99.90
15343;DHT22;7771;48.478;8.936;2024-03-25T02:36:10;5.80;99.90
15343;DHT22;7771;48.478;8.936;2024-03-25T02:38:38;5.80;99.90
15343;DHT22;7771;48.478;8.936;2024-03-25T02:41:04;5.80;99.90
15343;DHT22;7771;48.478;8.936;2024-03-25T02:43:31;5.80;99.90
15343;DHT22;7771;48.478;8.936;2024-03-25T02:48:26;5.80;99.90
15343;DHT22;7771;48.478;8.936;2024-03-25T02:53:21;5.70;99.90
15343;DHT22;7771;48.478;8.936;2024-03-25T02:55:47;5.70;99.90
15343;DHT22;7771;48.478;8.936;2024-03-25T02:58:14;5.70;99.90
15343;DHT22;7771;48.478;8.936;2024-03-25T03:00:41;5.70;99.90
15343;DHT22;7771;48.478;8.936;2024-03-25T03:03:08;5.70;99.90
15343;DHT22;7771;48.478;8.936;2024-03-25T03:05:35;5.70;99.90
15343;DHT22;7771;48.478;8.936;2024-03-25T03:08:02;5.70;99.90
15343;DHT22;7771;48.478;8.936;2024-03-25T03:10:29;5.70;99.90
15343;DHT22;7771;48.478;8.936;2024-03-25T03:12:56;5.70;99.90
15343;DHT22;7771;48.478;8.936;2024-03-25T03:15:23;5.70;99.90
15343;DHT22;7771;48.478;8.936;2024-03-25T03:17:51;5.60;99.90
15343;DHT22;7771;48.478;8.936;2024-03-25T03:20:17;5.60;99.90
15343;DHT22;7771;48.478;8.936;2024-03-25T03:22:45;5.60;99.90
15343;DHT22;7771;48.478;8.936;2024-03-25T03:25:11;5.60;99.90
15343;DHT22;7771;48.478;8.936;2024-03-25T03:27:38;5.60;99.90
15343;DHT22;7771;48.478;8.936;2024-03-25T03:30:06;5.60;99.90
15343;DHT22;7771;48.478;8.936;2024-03-25T03:32:33;5.60;99.90
15343;DHT22;7771;48.478;8.936;2024-03-25T03:35:00;5.60;99.90
15343;DHT22;7771;48.478;8.936;2024-03-25T03:37:27;5.50;99.90
15343;DHT22;7771;48.478;8.936;2024-03-25T03:42:22;5.50;99.90
15343;DHT22;7771;48.478;8.936;2024-03-25T03:44:50;5.40;99.90
15343;DHT22;7771;48.478;8.936;2024-03-25T03:47:17;5.40;99.90
15343;DHT22;7771;48.478;8.936;2024-03-25T03:49:46;5.30;99.90
15343;DHT22;7771;48.478;8.936;2024-03-25T03:52:12;5.30;99.90
15343;DHT22;7771;48.478;8.936;2024-03-25T03:54:40;5.30;99.90
15343;DHT22;7771;48.478;8.936;2024-03-25T03:57:08;5.20;99.90
15343;DHT22;7771;48.478;8.936;2024-03-25T03:59:36;5.20;99.90
15343;DHT22;7771;48.478;8.936;2024-03-25T04:02:04;5.20;99.90
15343;DHT22;7771;48.478;8.936;2024-03-25T04:04:30;5.10;99.90
15343;DHT22;7771;48.478;8.936;2024-03-25T04:06:58;5.10;99.90
15343;DHT22;7771;48.478;8.936;2024-03-25T04:09:25;5.00;99.90
15343;DHT22;7771;48.478;8.936;2024-03-25T04:11:52;5.10;99.90
15343;DHT22;7771;48.478;8.936;2024-03-25T04:14:19;5.10;99.90
15343;DHT22;7771;48.478;8.936;2024-03-25T04:16:47;5.10;99.90
15343;DHT22;7771;48.478;8.936;2024-03-25T04:19:15;5.00;99.90
15343;DHT22;7771;48.478;8.936;2024-03-25T04:21:42;5.00;99.90
15343;DHT22;7771;48.478;8.936;2024-03-25T04:24:10;4.90;99.90
15343;DHT22;7771;48.478;8.936;2024-03-25T04:26:37;4.90;99.90
15343;DHT22;7771;48.478;8.936;2024-03-25T04:29:04;4.90;99.90
15343;DHT22;7771;48.478;8.936;2024-03-25T04:31:31;4.90;99.90
15343;DHT22;7771;48.478;8.936;2024-03-25T04:33:57;4.90;99.90
15343;DHT22;7771;48.478;8.936;2024-03-25T04:38:52;4.80;99.90
15343;DHT22;7771;48.478;8.936;2024-03-25T04:41:20;4.80;99.90
15343;DHT22;7771;48.478;8.936;2024-03-25T04:43:47;4.80;99.90
15343;DHT22;7771;48.478;8.936;2024-03-25T04:46:15;4.90;99.90
15343;DHT22;7771;48.478;8.936;2024-03-25T04:48:42;4.90;99.90
15343;DHT22;7771;48.478;8.936;2024-03-25T04:51:08;4.90;99.90
15343;DHT22;7771;48.478;8.936;2024-03-25T04:53:35;4.90;99.90
15343;DHT22;7771;48.478;8.936;2024-03-25T04:56:02;4.90;99.90
15343;DHT22;7771;48.478;8.936;2024-03-25T04:58:28;4.90;99.90
15343;DHT22;7771;48.478;8.936;2024-03-25T05:00:55;5.00;99.90
15343;DHT22;7771;48.478;8.936;2024-03-25T05:03:22;5.00;99.90
15343;DHT22;7771;48.478;8.936;2024-03-25T05:05:50;5.00;99.90
15343;DHT22;7771;48.478;8.936;2024-03-25T05:08:18;5.10;99.90
15343;DHT22;7771;48.478;8.936;2024-03-25T05:13:12;5.10;99.90
15343;DHT22;7771;48.478;8.936;2024-03-25T05:15:40;5.10;99.90
15343;DHT22;7771;48.478;8.936;2024-03-25T05:18:06;5.10;99.90
15343;DHT22;7771;48.478;8.936;2024-03-25T05:20:33;5.10;99.90
15343;DHT22;7771;48.478;8.936;2024-03-25T05:23:00;5.10;99.90
15343;DHT22;7771;48.478;8.936;2024-03-25T05:25:28;5.10;99.90
15343;DHT22;7771;48.478;8.936;2024-03-25T05:27:55;5.10;99.90
15343;DHT22;7771;48.478;8.936;2024-03-25T05:30:21;5.20;99.90
15343;DHT22;7771;48.478;8.936;2024-03-25T05:32:49;5.30;99.90
15343;DHT22;7771;48.478;8.936;2024-03-25T05:35:16;5.30;99.90
15343;DHT22;7771;48.478;8.936;2024-03-25T05:37:44;5.30;99.90
15343;DHT22;7771;48.478;8.936;2024-03-25T05:40:11;5.40;99.90
15343;DHT22;7771;48.478;8.936;2024-03-25T05:42:38;5.40;99.90
15343;DHT22;7771;48.478;8.936;2024-03-25T05:47:33;5.40;99.90
15343;DHT22;7771;48.478;8.936;2024-03-25T05:52:28;5.50;99.90
15343;DHT22;7771;48.478;8.936;2024-03-25T05:54:55;5.50;99.90
15343;DHT22;7771;48.478;8.936;2024-03-25T05:57:23;5.60;99.90
15343;DHT22;7771;48.478;8.936;2024-03-25T05:59:49;5.70;99.90
15343;DHT22;7771;48.478;8.936;2024-03-25T06:04:45;5.70;99.90
15343;DHT22;7771;48.478;8.936;2024-03-25T06:07:13;5.80;99.90
15343;DHT22;7771;48.478;8.936;2024-03-25T06:09:40;5.80;99.90
15343;DHT22;7771;48.478;8.936;2024-03-25T06:14:36;5.90;99.90
15343;DHT22;7771;48.478;8.936;2024-03-25T06:17:04;6.00;99.90
15343;DHT22;7771;48.478;8.936;2024-03-25T06:19:30;6.00;99.90
15343;DHT22;7771;48.478;8.936;2024-03-25T06:21:57;6.10;99.90
15343;DHT22;7771;48.478;8.936;2024-03-25T06:24:25;6.10;99.90
15343;DHT22;7771;48.478;8.936;2024-03-25T06:29:20;6.20;99.90
15343;DHT22;7771;48.478;8.936;2024-03-25T06:31:48;6.30;99.90
15343;DHT22;7771;48.478;8.936;2024-03-25T06:34:20;6.40;99.90
15343;DHT22;7771;48.478;8.936;2024-03-25T06:36:48;6.40;99.90
15343;DHT22;7771;48.478;8.936;2024-03-25T06:41:43;6.50;99.90
15343;DHT22;7771;48.478;8.936;2024-03-25T06:44:10;6.60;99.90
15343;DHT22;7771;48.478;8.936;2024-03-25T06:46:37;6.50;99.90
15343;DHT22;7771;48.478;8.936;2024-03-25T06:49:03;6.60;99.90
15343;DHT22;7771;48.478;8.936;2024-03-25T06:51:31;6.60;99.90
15343;DHT22;7771;48.478;8.936;2024-03-25T06:53:59;6.70;99.90
15343;DHT22;7771;48.478;8.936;2024-03-25T06:56:25;6.80;99.90
15343;DHT22;7771;48.478;8.936;2024-03-25T06:58:53;6.80;99.90
15343;DHT22;7771;48.478;8.936;2024-03-25T07:01:20;6.90;99.90
15343;DHT22;7771;48.478;8.936;2024-03-25T07:03:47;7.00;99.90
15343;DHT22;7771;48.478;8.936;2024-03-25T07:06:13;7.10;99.90
15343;DHT22;7771;48.478;8.936;2024-03-25T07:08:41;7.20;99.90
15343;DHT22;7771;48.478;8.936;2024-03-25T07:11:08;7.30;99.90
15343;DHT22;7771;48.478;8.936;2024-03-25T07:13:35;7.40;99.90
15343;DHT22;7771;48.478;8.936;2024-03-25T07:16:01;7.50;99.90
15343;DHT22;7771;48.478;8.936;2024-03-25T07:18:28;7.70;99.90
15343;DHT22;7771;48.478;8.936;2024-03-25T07:20:55;7.90;99.90
15343;DHT22;7771;48.478;8.936;2024-03-25T07:23:22;8.10;99.90
15343;DHT22;7771;48.478;8.936;2024-03-25T07:25:49;8.20;99.90
15343;DHT22;7771;48.478;8.936;2024-03-25T07:28:16;8.40;99.90
15343;DHT22;7771;48.478;8.936;2024-03-25T07:30:43;8.50;99.90
15343;DHT22;7771;48.478;8.936;2024-03-25T07:33:10;8.70;99.90
15343;DHT22;7771;48.478;8.936;2024-03-25T07:35:38;8.90;99.90
15343;DHT22;7771;48.478;8.936;2024-03-25T07:43:00;9.40;99.90
15343;DHT22;7771;48.478;8.936;2024-03-25T07:50:24;10.30;99.90
15343;DHT22;7771;48.478;8.936;2024-03-25T07:55:20;10.70;99.90
15343;DHT22;7771;48.478;8.936;2024-03-25T07:57:46;10.80;99.90
15343;DHT22;7771;48.478;8.936;2024-03-25T08:00:13;10.80;99.90
15343;DHT22;7771;48.478;8.936;2024-03-25T08:02:40;10.90;99.90
15343;DHT22;7771;48.478;8.936;2024-03-25T08:05:07;10.90;99.90
15343;DHT22;7771;48.478;8.936;2024-03-25T08:10:02;11.20;99.90
15343;DHT22;7771;48.478;8.936;2024-03-25T08:12:29;11.40;99.90
15343;DHT22;7771;48.478;8.936;2024-03-25T08:14:57;11.50;99.90
15343;DHT22;7771;48.478;8.936;2024-03-25T08:17:23;11.70;99.90
15343;DHT22;7771;48.478;8.936;2024-03-25T08:19:51;11.90;99.90
15343;DHT22;7771;48.478;8.936;2024-03-25T08:22:17;12.00;99.90
15343;DHT22;7771;48.478;8.936;2024-03-25T08:24:44;12.10;99.90
15343;DHT22;7771;48.478;8.936;2024-03-25T08:27:12;12.30;99.90
15343;DHT22;7771;48.478;8.936;2024-03-25T08:29:39;12.40;99.90
15343;DHT22;7771;48.478;8.936;2024-03-25T08:32:07;12.60;99.90
15343;DHT22;7771;48.478;8.936;2024-03-25T08:34:34;12.70;99.90
15343;DHT22;7771;48.478;8.936;2024-03-25T08:37:00;12.80;99.90
15343;DHT22;7771;48.478;8.936;2024-03-25T08:39:27;12.90;99.90
15343;DHT22;7771;48.478;8.936;2024-03-25T08:46:49;13.40;99.90
15343;DHT22;7771;48.478;8.936;2024-03-25T08:49:16;13.60;99.90
15343;DHT22;7771;48.478;8.936;2024-03-25T08:51:43;13.80;99.90
15343;DHT22;7771;48.478;8.936;2024-03-25T08:54:12;14.00;99.60
15343;DHT22;7771;48.478;8.936;2024-03-25T08:56:38;14.20;99.30
15343;DHT22;7771;48.478;8.936;2024-03-25T08:59:06;14.30;98.40
15343;DHT22;7771;48.478;8.936;2024-03-25T09:01:32;14.40;98.30
15343;DHT22;7771;48.478;8.936;2024-03-25T09:04:00;14.50;97.40
15343;DHT22;7771;48.478;8.936;2024-03-25T09:06:27;14.40;97.60
15343;DHT22;7771;48.478;8.936;2024-03-25T09:11:27;14.40;97.30
15343;DHT22;7771;48.478;8.936;2024-03-25T09:13:55;14.40;97.40
15343;DHT22;7771;48.478;8.936;2024-03-25T09:16:22;14.50;97.50
15343;DHT22;7771;48.478;8.936;2024-03-25T09:18:49;14.60;96.30
15343;DHT22;7771;48.478;8.936;2024-03-25T09:21:16;14.70;96.30
15343;DHT22;7771;48.478;8.936;2024-03-25T09:23:43;14.80;96.20
15343;DHT22;7771;48.478;8.936;2024-03-25T09:26:09;14.80;95.00
15343;DHT22;7771;48.478;8.936;2024-03-25T09:31:05;14.90;95.30
15343;DHT22;7771;48.478;8.936;2024-03-25T09:33:31;15.10;94.40
15343;DHT22;7771;48.478;8.936;2024-03-25T09:35:59;15.10;93.20
15343;DHT22;7771;48.478;8.936;2024-03-25T09:38:25;15.10;93.30
15343;DHT22;7771;48.478;8.936;2024-03-25T09:40:53;15.20;93.60
15343;DHT22;7771;48.478;8.936;2024-03-25T09:48:36;15.40;92.80
15343;DHT22;7771;48.478;8.936;2024-03-25T09:51:02;15.50;92.40
15343;DHT22;7771;48.478;8.936;2024-03-25T09:53:29;15.60;91.50
15343;DHT22;7771;48.478;8.936;2024-03-25T09:55:56;15.60;91.20
15343;DHT22;7771;48.478;8.936;2024-03-25T09:58:24;15.60;90.60
15343;DHT22;7771;48.478;8.936;2024-03-25T10:00:51;15.40;87.50
15343;DHT22;7771;48.478;8.936;2024-03-25T10:03:18;15.10;88.10
15343;DHT22;7771;48.478;8.936;2024-03-25T10:08:13;14.60;91.10
15343;DHT22;7771;48.478;8.936;2024-03-25T10:10:40;14.40;91.00
15343;DHT22;7771;48.478;8.936;2024-03-25T10:13:08;14.20;91.80
15343;DHT22;7771;48.478;8.936;2024-03-25T10:15:36;14.30;91.40
15343;DHT22;7771;48.478;8.936;2024-03-25T10:18:02;14.30;91.10
15343;DHT22;7771;48.478;8.936;2024-03-25T10:22:59;14.30;90.90
15343;DHT22;7771;48.478;8.936;2024-03-25T10:25:27;14.30;90.70
15343;DHT22;7771;48.478;8.936;2024-03-25T10:27:58;14.30;90.50
15343;DHT22;7771;48.478;8.936;2024-03-25T10:30:25;14.40;90.10
15343;DHT22;7771;48.478;8.936;2024-03-25T10:32:59;14.50;90.40
15343;DHT22;7771;48.478;8.936;2024-03-25T10:35:27;14.50;90.20
15343;DHT22;7771;48.478;8.936;2024-03-25T10:43:05;14.40;90.10
15343;DHT22;7771;48.478;8.936;2024-03-25T10:45:31;14.40;90.50
15343;DHT22;7771;48.478;8.936;2024-03-25T10:48:02;14.50;90.90
15343;DHT22;7771;48.478;8.936;2024-03-25T10:50:30;14.60;91.00
15343;DHT22;7771;48.478;8.936;2024-03-25T10:52:57;14.70;89.20
15343;DHT22;7771;48.478;8.936;2024-03-25T10:55:25;14.80;89.40
15343;DHT22;7771;48.478;8.936;2024-03-25T10:57:52;14.70;89.60
15343;DHT22;7771;48.478;8.936;2024-03-25T11:05:15;14.80;89.20
15343;DHT22;7771;48.478;8.936;2024-03-25T11:07:43;14.70;88.50
15343;DHT22;7771;48.478;8.936;2024-03-25T11:10:11;14.60;89.50
15343;DHT22;7771;48.478;8.936;2024-03-25T11:12:38;14.60;88.80
15343;DHT22;7771;48.478;8.936;2024-03-25T11:15:06;14.50;89.80
15343;DHT22;7771;48.478;8.936;2024-03-25T11:17:34;14.50;90.00
15343;DHT22;7771;48.478;8.936;2024-03-25T11:20:15;14.60;89.60
15343;DHT22;7771;48.478;8.936;2024-03-25T11:22:49;14.60;89.80
15343;DHT22;7771;48.478;8.936;2024-03-25T11:25:16;14.70;90.30
15343;DHT22;7771;48.478;8.936;2024-03-25T11:27:43;14.90;90.10
15343;DHT22;7771;48.478;8.936;2024-03-25T11:30:10;15.00;88.00
15343;DHT22;7771;48.478;8.936;2024-03-25T11:32:56;15.10;87.10
15343;DHT22;7771;48.478;8.936;2024-03-25T11:35:23;15.20;85.10
15343;DHT22;7771;48.478;8.936;2024-03-25T11:37:50;15.30;84.50
15343;DHT22;7771;48.478;8.936;2024-03-25T11:40:17;15.20;83.50
15343;DHT22;7771;48.478;8.936;2024-03-25T11:42:45;15.10;84.00
15343;DHT22;7771;48.478;8.936;2024-03-25T11:45:19;15.10;83.70
15343;DHT22;7771;48.478;8.936;2024-03-25T11:47:45;15.00;84.00
15343;DHT22;7771;48.478;8.936;2024-03-25T11:50:12;15.10;83.30
15343;DHT22;7771;48.478;8.936;2024-03-25T11:55:07;15.20;82.90
15343;DHT22;7771;48.478;8.936;2024-03-25T12:00:04;15.40;82.70
15343;DHT22;7771;48.478;8.936;2024-03-25T12:02:31;15.40;82.00
15343;DHT22;7771;48.478;8.936;2024-03-25T12:04:59;15.60;81.60
15343;DHT22;7771;48.478;8.936;2024-03-25T12:07:26;15.70;81.60
15343;DHT22;7771;48.478;8.936;2024-03-25T12:09:53;15.70;79.60
15343;DHT22;7771;48.478;8.936;2024-03-25T12:12:26;15.80;80.60
15343;DHT22;7771;48.478;8.936;2024-03-25T12:14:53;15.80;78.90
15343;DHT22;7771;48.478;8.936;2024-03-25T12:17:20;15.90;78.30
15343;DHT22;7771;48.478;8.936;2024-03-25T12:20:08;15.90;76.30
15343;DHT22;7771;48.478;8.936;2024-03-25T12:22:36;15.80;77.30
15343;DHT22;7771;48.478;8.936;2024-03-25T12:25:04;15.80;77.50
15343;DHT22;7771;48.478;8.936;2024-03-25T12:27:32;15.90;77.20
15343;DHT22;7771;48.478;8.936;2024-03-25T12:30:02;15.90;76.70
15343;DHT22;7771;48.478;8.936;2024-03-25T12:34:58;15.90;76.50
15343;DHT22;7771;48.478;8.936;2024-03-25T12:37:26;15.90;76.10
15343;DHT22;7771;48.478;8.936;2024-03-25T12:42:20;15.80;76.50
15343;DHT22;7771;48.478;8.936;2024-03-25T12:44:48;15.90;75.80
15343;DHT22;7771;48.478;8.936;2024-03-25T12:47:15;16.00;76.30
15343;DHT22;7771;48.478;8.936;2024-03-25T12:49:42;16.00;76.90
15343;DHT22;7771;48.478;8.936;2024-03-25T12:54:38;16.10;77.30
15343;DHT22;7771;48.478;8.936;2024-03-25T12:57:05;16.20;77.50
15343;DHT22;7771;48.478;8.936;2024-03-25T13:02:01;16.30;77.00
15343;DHT22;7771;48.478;8.936;2024-03-25T13:04:29;15.80;76.10
15343;DHT22;7771;48.478;8.936;2024-03-25T13:06:58;16.30;76.40
15343;DHT22;7771;48.478;8.936;2024-03-25T13:09:26;16.30;75.20
15343;DHT22;7771;48.478;8.936;2024-03-25T13:11:53;16.30;75.30
15343;DHT22;7771;48.478;8.936;2024-03-25T13:14:20;16.20;75.50
15343;DHT22;7771;48.478;8.936;2024-03-25T13:19:16;16.30;73.50
15343;DHT22;7771;48.478;8.936;2024-03-25T13:21:43;16.30;73.50
15343;DHT22;7771;48.478;8.936;2024-03-25T13:24:10;16.30;74.20
15343;DHT22;7771;48.478;8.936;2024-03-25T13:26:37;16.40;74.90
15343;DHT22;7771;48.478;8.936;2024-03-25T13:29:05;16.40;74.40
15343;DHT22;7771;48.478;8.936;2024-03-25T13:31:32;16.40;74.30
15343;DHT22;7771;48.478;8.936;2024-03-25T13:33:58;16.40;74.70
15343;DHT22;7771;48.478;8.936;2024-03-25T13:36:25;16.40;74.40
15343;DHT22;7771;48.478;8.936;2024-03-25T13:38:52;16.40;72.90
15343;DHT22;7771;48.478;8.936;2024-03-25T13:41:18;16.40;73.10
15343;DHT22;7771;48.478;8.936;2024-03-25T13:43:45;16.40;72.30
15343;DHT22;7771;48.478;8.936;2024-03-25T13:46:12;16.30;71.50
15343;DHT22;7771;48.478;8.936;2024-03-25T13:48:39;16.40;72.60
15343;DHT22;7771;48.478;8.936;2024-03-25T13:51:06;16.40;72.60
15343;DHT22;7771;48.478;8.936;2024-03-25T13:53:32;16.40;73.00
15343;DHT22;7771;48.478;8.936;2024-03-25T13:55:59;16.50;70.60
15343;DHT22;7771;48.478;8.936;2024-03-25T13:58:27;16.40;71.60
15343;DHT22;7771;48.478;8.936;2024-03-25T14:00:55;16.30;69.40
15343;DHT22;7771;48.478;8.936;2024-03-25T14:03:23;16.20;69.60
15343;DHT22;7771;48.478;8.936;2024-03-25T14:05:50;16.10;70.30
15343;DHT22;7771;48.478;8.936;2024-03-25T14:08:17;16.00;70.90
15343;DHT22;7771;48.478;8.936;2024-03-25T14:10:44;16.00;71.60
15343;DHT22;7771;48.478;8.936;2024-03-25T14:13:11;16.00;71.40
15343;DHT22;7771;48.478;8.936;2024-03-25T14:15:37;16.10;71.90
15343;DHT22;7771;48.478;8.936;2024-03-25T14:18:05;16.00;72.40
15343;DHT22;7771;48.478;8.936;2024-03-25T14:20:33;16.00;70.50
15343;DHT22;7771;48.478;8.936;2024-03-25T14:23:01;15.90;69.90
15343;DHT22;7771;48.478;8.936;2024-03-25T14:25:27;15.90;69.10
15343;DHT22;7771;48.478;8.936;2024-03-25T14:27:55;15.90;69.20
15343;DHT22;7771;48.478;8.936;2024-03-25T14:30:21;16.00;67.70
15343;DHT22;7771;48.478;8.936;2024-03-25T14:32:48;15.90;69.10
15343;DHT22;7771;48.478;8.936;2024-03-25T14:35:15;15.90;71.30
15343;DHT22;7771;48.478;8.936;2024-03-25T14:37:43;15.90;71.90
15343;DHT22;7771;48.478;8.936;2024-03-25T14:40:10;15.90;71.70
15343;DHT22;7771;48.478;8.936;2024-03-25T14:42:38;15.80;71.40
15343;DHT22;7771;48.478;8.936;2024-03-25T14:45:05;15.80;69.00
15343;DHT22;7771;48.478;8.936;2024-03-25T14:47:34;15.70;70.10
15343;DHT22;7771;48.478;8.936;2024-03-25T14:50:00;15.60;70.30
15343;DHT22;7771;48.478;8.936;2024-03-25T14:52:28;15.60;70.40
15343;DHT22;7771;48.478;8.936;2024-03-25T14:54:56;15.60;70.20
15343;DHT22;7771;48.478;8.936;2024-03-25T14:57:23;15.50;69.70
15343;DHT22;7771;48.478;8.936;2024-03-25T15:04:46;15.50;69.90
15343;DHT22;7771;48.478;8.936;2024-03-25T15:07:13;15.40;70.20
15343;DHT22;7771;48.478;8.936;2024-03-25T15:09:40;15.40;70.50
15343;DHT22;7771;48.478;8.936;2024-03-25T15:17:04;15.20;71.40
15343;DHT22;7771;48.478;8.936;2024-03-25T15:19:32;15.20;70.50
15343;DHT22;7771;48.478;8.936;2024-03-25T15:24:29;15.10;69.80
15343;DHT22;7771;48.478;8.936;2024-03-25T15:26:57;15.10;69.40
15343;DHT22;7771;48.478;8.936;2024-03-25T15:29:23;15.00;69.80
15343;DHT22;7771;48.478;8.936;2024-03-25T15:31:50;15.00;70.70
15343;DHT22;7771;48.478;8.936;2024-03-25T15:34:17;15.00;70.40
15343;DHT22;7771;48.478;8.936;2024-03-25T15:36:45;14.90;70.40
15343;DHT22;7771;48.478;8.936;2024-03-25T15:39:11;14.80;69.60
15343;DHT22;7771;48.478;8.936;2024-03-25T15:46:35;14.60;69.70
15343;DHT22;7771;48.478;8.936;2024-03-25T15:49:03;14.60;69.50
15343;DHT22;7771;48.478;8.936;2024-03-25T15:53:58;14.50;70.20
15343;DHT22;7771;48.478;8.936;2024-03-25T15:56:26;14.40;70.30
15343;DHT22;7771;48.478;8.936;2024-03-25T15:58:52;14.40;70.50
15343;DHT22;7771;48.478;8.936;2024-03-25T16:01:20;14.30;71.20
15343;DHT22;7771;48.478;8.936;2024-03-25T16:03:47;14.30;71.60
15343;DHT22;7771;48.478;8.936;2024-03-25T16:08:42;14.20;72.70
15343;DHT22;7771;48.478;8.936;2024-03-25T16:11:14;14.10;73.40
15343;DHT22;7771;48.478;8.936;2024-03-25T16:13:40;14.10;72.90
15343;DHT22;7771;48.478;8.936;2024-03-25T16:18:36;14.00;72.70
15343;DHT22;7771;48.478;8.936;2024-03-25T16:21:03;14.00;72.60
15343;DHT22;7771;48.478;8.936;2024-03-25T16:23:30;13.90;72.00
15343;DHT22;7771;48.478;8.936;2024-03-25T16:25:56;13.80;72.30
15343;DHT22;7771;48.478;8.936;2024-03-25T16:30:52;13.70;72.90
15343;DHT22;7771;48.478;8.936;2024-03-25T16:33:19;13.70;72.30
15343;DHT22;7771;48.478;8.936;2024-03-25T16:35:46;13.60;71.80
15343;DHT22;7771;48.478;8.936;2024-03-25T16:38:13;13.50;72.30
15343;DHT22;7771;48.478;8.936;2024-03-25T16:43:08;13.50;72.70
15343;DHT22;7771;48.478;8.936;2024-03-25T16:48:03;13.40;73.30
15343;DHT22;7771;48.478;8.936;2024-03-25T16:50:31;13.30;73.70
15343;DHT22;7771;48.478;8.936;2024-03-25T16:53:00;13.30;74.00
15343;DHT22;7771;48.478;8.936;2024-03-25T16:55:28;13.30;74.20
15343;DHT22;7771;48.478;8.936;2024-03-25T16:57:55;13.20;74.30
15343;DHT22;7771;48.478;8.936;2024-03-25T17:02:51;13.20;75.00
15343;DHT22;7771;48.478;8.936;2024-03-25T17:05:19;13.10;75.20
15343;DHT22;7771;48.478;8.936;2024-03-25T17:10:15;13.00;75.60
15343;DHT22;7771;48.478;8.936;2024-03-25T17:15:13;12.90;76.30
15343;DHT22;7771;48.478;8.936;2024-03-25T17:17:40;12.90;76.30
15343;DHT22;7771;48.478;8.936;2024-03-25T17:20:09;12.80;76.60
15343;DHT22;7771;48.478;8.936;2024-03-25T17:22:37;12.80;76.80
15343;DHT22;7771;48.478;8.936;2024-03-25T17:25:04;12.80;76.80
15343;DHT22;7771;48.478;8.936;2024-03-25T17:27:31;12.70;76.80
15343;DHT22;7771;48.478;8.936;2024-03-25T17:29:58;12.60;76.80
15343;DHT22;7771;48.478;8.936;2024-03-25T17:32:26;12.60;76.90
15343;DHT22;7771;48.478;8.936;2024-03-25T17:34:54;12.60;77.30
15343;DHT22;7771;48.478;8.936;2024-03-25T17:37:20;12.50;77.60
15343;DHT22;7771;48.478;8.936;2024-03-25T17:39:48;12.50;77.90
15343;DHT22;7771;48.478;8.936;2024-03-25T17:42:16;12.40;78.00
15343;DHT22;7771;48.478;8.936;2024-03-25T17:44:50;12.40;78.40
15343;DHT22;7771;48.478;8.936;2024-03-25T17:49:45;12.30;79.10
15343;DHT22;7771;48.478;8.936;2024-03-25T17:52:12;12.20;79.30
15343;DHT22;7771;48.478;8.936;2024-03-25T17:57:10;12.10;80.10
15343;DHT22;7771;48.478;8.936;2024-03-25T17:59:36;12.10;80.40
15343;DHT22;7771;48.478;8.936;2024-03-25T18:02:03;12.10;80.60
15343;DHT22;7771;48.478;8.936;2024-03-25T18:04:33;11.90;81.40
15343;DHT22;7771;48.478;8.936;2024-03-25T18:07:01;11.90;81.40
15343;DHT22;7771;48.478;8.936;2024-03-25T18:09:27;11.90;81.60
15343;DHT22;7771;48.478;8.936;2024-03-25T18:14:22;11.80;82.20
15343;DHT22;7771;48.478;8.936;2024-03-25T18:16:49;11.70;82.40
15343;DHT22;7771;48.478;8.936;2024-03-25T18:19:17;11.70;82.70